Time;durP1;ratioP1;P1;durP2;ratioP2;P2;SDS_P1;SDS_P2;PMS_P1;PMS_P2;Temp;Humidity;BMP_temperature;BMP_pressure;BME280_temperature;BME280_humidity;BME280_pressure;Samples;Min_cycle;Max_cycle;Signal;HPM_P1;HPM_P2
2023/04/13 00:00:47;;;;;;;0.55;0.25;;;7.80;92.10;;;;;;5115050;28;20492;-74
2023/04/13 00:03:15;;;;;;;0.63;0.40;;;7.80;92.40;;;;;;5114997;28;20024;-74
2023/04/13 00:05:41;;;;;;;2.08;0.22;;;7.80;92.70;;;;;;5114981;28;20020;-74
2023/04/13 00:08:07;;;;;;;0.98;0.40;;;7.80;93.20;;;;;;5114945;28;20095;-75
2023/04/13 00:10:40;;;;;;;1.65;0.52;;;7.70;93.50;;;;;;5113798;28;20024;-74
2023/04/13 00:13:07;;;;;;;0.93;0.45;;;7.60;94.40;;;;;;5114936;28;20016;-74
2023/04/13 00:15:36;;;;;;;2.75;0.40;;;7.60;94.70;;;;;;5114769;28;20040;-74
2023/04/13 00:18:03;;;;;;;0.85;0.38;;;7.60;94.60;;;;;;5113834;28;20035;-75
2023/04/13 00:20:29;;;;;;;2.35;0.82;;;7.50;95.00;;;;;;5114732;28;20051;-75
2023/04/13 00:22:55;;;;;;;1.23;0.60;;;7.40;95.10;;;;;;5114598;28;20486;-74
2023/04/13 00:25:20;;;;;;;0.55;0.38;;;7.40;95.00;;;;;;5114647;28;20046;-74
2023/04/13 00:27:48;;;;;;;0.98;0.63;;;7.40;95.40;;;;;;5114558;28;20028;-74
2023/04/13 00:30:15;;;;;;;0.45;0.35;;;7.60;95.20;;;;;;5113603;28;20047;-75
2023/04/13 00:32:42;;;;;;;1.73;0.50;;;7.50;95.30;;;;;;5114612;28;20028;-74
2023/04/13 00:35:09;;;;;;;0.45;0.43;;;7.50;95.40;;;;;;5114365;28;20016;-74
2023/04/13 00:37:36;;;;;;;0.70;0.47;;;7.50;95.50;;;;;;5113561;28;20074;-74
2023/04/13 00:40:04;;;;;;;0.73;0.35;;;7.50;95.60;;;;;;5113316;28;20047;-75
2023/04/13 00:42:30;;;;;;;1.17;0.35;;;7.50;95.60;;;;;;5114453;28;20050;-74
2023/04/13 00:44:56;;;;;;;0.25;0.17;;;7.60;95.70;;;;;;5114366;28;20024;-75
2023/04/13 00:47:27;;;;;;;2.38;0.70;;;7.60;95.40;;;;;;5113183;28;20069;-74
2023/04/13 00:49:59;;;;;;;1.47;0.47;;;7.70;95.20;;;;;;5114186;28;20031;-74
2023/04/13 00:52:24;;;;;;;2.08;0.70;;;7.70;95.10;;;;;;5114140;28;20096;-74
2023/04/13 00:54:50;;;;;;;0.75;0.40;;;7.70;95.40;;;;;;5113142;28;20028;-74
2023/04/13 00:57:18;;;;;;;0.93;0.20;;;7.70;95.40;;;;;;5114074;28;20030;-75
2023/04/13 00:59:46;;;;;;;2.15;0.30;;;7.70;95.90;;;;;;5114017;28;20023;-74
2023/04/13 01:02:12;;;;;;;1.15;0.70;;;7.80;95.80;;;;;;5113956;28;20012;-74
2023/04/13 01:04:38;;;;;;;0.82;0.35;;;7.80;96.00;;;;;;5113969;28;20020;-75
2023/04/13 01:07:22;;;;;;;2.67;0.85;;;7.80;96.30;;;;;;5113856;28;20032;-74
2023/04/13 01:09:54;;;;;;;1.00;0.38;;;7.80;96.40;;;;;;5113964;28;20028;-75
2023/04/13 01:12:57;;;;;;;2.13;0.63;;;7.80;96.70;;;;;;5113875;28;20068;-74
2023/04/13 01:15:22;;;;;;;0.55;0.40;;;7.80;96.50;;;;;;5113833;28;20028;-74
2023/04/13 01:17:55;;;;;;;0.95;0.30;;;7.80;96.20;;;;;;5113735;28;20027;-74
2023/04/13 01:20:22;;;;;;;1.58;0.32;;;7.80;96.50;;;;;;5113750;28;20026;-75
2023/04/13 01:22:57;;;;;;;1.05;0.30;;;7.80;96.40;;;;;;5113658;28;20056;-74
2023/04/13 01:25:37;;;;;;;1.23;0.30;;;7.80;96.40;;;;;;5113634;28;20067;-74
2023/04/13 01:28:06;;;;;;;1.52;0.63;;;7.80;96.50;;;;;;5113757;28;20024;-74
2023/04/13 01:30:33;;;;;;;0.10;0.10;;;7.80;96.70;;;;;;5113195;28;20393;-74
2023/04/13 01:33:01;;;;;;;1.13;0.47;;;7.80;96.80;;;;;;5113520;28;20020;-74
2023/04/13 01:35:28;;;;;;;3.97;0.60;;;7.80;96.90;;;;;;5113533;28;20020;-74
2023/04/13 01:37:56;;;;;;;1.30;0.40;;;7.90;96.90;;;;;;5113605;28;20080;-74
2023/04/13 01:40:23;;;;;;;0.10;0.10;;;7.90;96.80;;;;;;5113491;28;20028;-74
2023/04/13 01:42:49;;;;;;;0.63;0.40;;;7.90;96.80;;;;;;5113481;28;20016;-74
2023/04/13 01:45:25;;;;;;;2.25;0.65;;;7.90;96.70;;;;;;5113309;28;20058;-74
2023/04/13 01:48:09;;;;;;;2.65;0.57;;;7.90;96.70;;;;;;5113480;28;20028;-74
2023/04/13 01:50:39;;;;;;;0.77;0.28;;;7.90;96.60;;;;;;5113495;28;20579;-74
2023/04/13 01:53:14;;;;;;;2.90;0.60;;;7.90;96.40;;;;;;5112640;28;20083;-75
2023/04/13 01:55:41;;;;;;;1.25;0.50;;;8.00;96.70;;;;;;5113396;28;20016;-74
2023/04/13 01:58:10;;;;;;;1.08;0.32;;;8.00;96.90;;;;;;5113345;28;20012;-74
2023/04/13 02:00:36;;;;;;;1.75;0.45;;;7.90;96.90;;;;;;5113294;28;20034;-74
2023/04/13 02:03:08;;;;;;;3.67;0.40;;;7.90;97.20;;;;;;5113291;28;20020;-74
2023/04/13 02:05:35;;;;;;;0.30;0.25;;;7.90;97.60;;;;;;5113309;28;20031;-74
2023/04/13 02:08:05;;;;;;;2.30;0.80;;;7.90;97.70;;;;;;5113216;28;20020;-74
2023/04/13 02:10:33;;;;;;;0.55;0.32;;;7.90;97.80;;;;;;5113114;28;20039;-74
2023/04/13 02:12:59;;;;;;;2.42;0.50;;;7.90;98.30;;;;;;5112237;28;20035;-74
2023/04/13 02:15:28;;;;;;;0.75;0.50;;;7.80;98.40;;;;;;5113170;28;20028;-74
2023/04/13 02:17:53;;;;;;;2.08;0.47;;;7.80;98.70;;;;;;5113315;28;20024;-74
2023/04/13 02:20:19;;;;;;;5.32;0.98;;;7.80;99.00;;;;;;5113244;28;20036;-74
2023/04/13 02:22:44;;;;;;;1.63;0.70;;;7.90;99.00;;;;;;5113087;28;20087;-74
2023/04/13 02:25:11;;;;;;;3.50;0.90;;;7.90;99.20;;;;;;5113197;28;20036;-74
2023/04/13 02:27:38;;;;;;;4.05;0.70;;;7.80;99.30;;;;;;5112020;28;20046;-74
2023/04/13 02:30:08;;;;;;;1.38;0.70;;;7.80;99.30;;;;;;5112940;28;20035;-74
2023/04/13 02:32:40;;;;;;;0.75;0.40;;;7.80;99.40;;;;;;5112058;28;20055;-74
2023/04/13 02:35:09;;;;;;;2.42;0.70;;;7.90;99.40;;;;;;5112917;28;20038;-74
2023/04/13 02:37:38;;;;;;;2.90;0.90;;;7.80;99.50;;;;;;5112994;28;20012;-75
2023/04/13 02:40:07;;;;;;;2.25;0.50;;;7.80;99.60;;;;;;5112928;28;20502;-75
2023/04/13 02:42:33;;;;;;;2.50;0.90;;;7.80;99.50;;;;;;5114818;28;20032;-74
2023/04/13 02:44:58;;;;;;;2.85;0.90;;;7.80;99.60;;;;;;5116613;28;20032;-75
2023/04/13 02:47:24;;;;;;;1.95;0.80;;;7.90;99.50;;;;;;5116145;28;20052;-75
2023/04/13 02:49:50;;;;;;;1.55;0.90;;;7.90;99.50;;;;;;5115411;28;20028;-75
2023/04/13 02:52:16;;;;;;;1.70;0.60;;;7.90;99.40;;;;;;5116593;28;20017;-75
2023/04/13 02:54:42;;;;;;;2.58;0.90;;;7.90;99.40;;;;;;5098564;28;20049;-76
2023/04/13 02:57:12;;;;;;;1.75;0.57;;;8.00;99.40;;;;;;5116375;28;20046;-75
2023/04/13 02:59:40;;;;;;;2.20;0.57;;;8.00;99.30;;;;;;5115286;28;20023;-75
2023/04/13 03:02:07;;;;;;;3.38;0.68;;;7.90;99.50;;;;;;5116300;28;20032;-75
2023/04/13 03:04:33;;;;;;;2.05;0.60;;;7.90;99.20;;;;;;5116216;28;20025;-76
2023/04/13 03:06:58;;;;;;;2.03;0.68;;;8.00;99.10;;;;;;5116129;28;20041;-75
2023/04/13 03:09:25;;;;;;;2.70;0.85;;;8.00;99.10;;;;;;5115075;28;20039;-76
2023/04/13 03:11:50;;;;;;;4.80;1.05;;;8.10;99.00;;;;;;5116014;28;20045;-76
2023/04/13 03:14:20;;;;;;;3.22;1.10;;;8.10;98.90;;;;;;5098193;28;20032;-75
2023/04/13 03:16:46;;;;;;;2.22;0.60;;;8.10;99.00;;;;;;5115991;28;20079;-76
2023/04/13 03:19:12;;;;;;;2.85;0.95;;;8.10;98.90;;;;;;5115925;28;20031;-76
2023/04/13 03:21:37;;;;;;;4.25;1.50;;;8.20;98.90;;;;;;5115942;28;20032;-76
2023/04/13 03:24:04;;;;;;;1.98;1.00;;;8.20;98.90;;;;;;5115793;28;20043;-75
2023/04/13 03:26:29;;;;;;;5.38;0.93;;;8.20;99.00;;;;;;5114782;28;20055;-75
2023/04/13 03:28:55;;;;;;;2.10;1.02;;;8.20;98.90;;;;;;5115767;28;20028;-76
2023/04/13 03:31:21;;;;;;;5.47;1.30;;;8.10;98.90;;;;;;5115628;28;20040;-76
2023/04/13 03:33:46;;;;;;;2.97;1.13;;;8.10;98.80;;;;;;5115565;28;20035;-76
2023/04/13 03:36:12;;;;;;;3.08;1.13;;;8.10;98.80;;;;;;5115576;28;20024;-75
2023/04/13 03:38:38;;;;;;;3.70;1.02;;;8.10;98.90;;;;;;5115576;28;20028;-76
2023/04/13 03:41:04;;;;;;;2.38;1.10;;;8.10;98.90;;;;;;5115373;28;20021;-76
2023/04/13 03:43:30;;;;;;;3.17;0.88;;;8.10;98.70;;;;;;5115496;28;20038;-76
2023/04/13 03:45:56;;;;;;;2.40;1.15;;;8.10;98.50;;;;;;5114330;28;20028;-75
2023/04/13 03:48:21;;;;;;;1.42;0.70;;;8.10;98.50;;;;;;5114471;28;20107;-75
2023/04/13 03:50:47;;;;;;;3.25;1.10;;;8.10;98.40;;;;;;5114313;28;20029;-75
2023/04/13 03:53:13;;;;;;;3.08;1.02;;;8.10;98.40;;;;;;5114024;28;20485;-75
2023/04/13 03:55:39;;;;;;;1.15;0.85;;;8.10;98.30;;;;;;5115208;28;20012;-75
2023/04/13 03:58:04;;;;;;;1.73;0.68;;;8.10;98.30;;;;;;5115145;28;20076;-76
2023/04/13 04:00:30;;;;;;;4.88;1.08;;;8.20;98.30;;;;;;5115109;28;20024;-76
2023/04/13 04:02:56;;;;;;;2.97;1.05;;;8.10;98.30;;;;;;5115070;28;20393;-76
2023/04/13 04:05:21;;;;;;;1.77;1.20;;;8.10;98.20;;;;;;5114076;28;20036;-76
2023/04/13 04:07:47;;;;;;;3.30;1.13;;;8.20;98.00;;;;;;5114042;28;20058;-76
2023/04/13 04:10:12;;;;;;;6.85;1.35;;;8.10;97.90;;;;;;5114830;28;20036;-76
2023/04/13 04:12:38;;;;;;;3.67;1.60;;;8.10;97.80;;;;;;5114891;28;20083;-76
2023/04/13 04:15:04;;;;;;;3.55;1.55;;;8.10;97.60;;;;;;5113852;28;20415;-76
2023/04/13 04:17:30;;;;;;;3.17;1.60;;;8.00;97.50;;;;;;5114809;28;20020;-76
2023/04/13 04:19:57;;;;;;;2.20;1.38;;;8.00;97.60;;;;;;5114727;28;20024;-76
2023/04/13 04:22:28;;;;;;;3.42;1.80;;;7.90;97.60;;;;;;5114578;28;20059;-77
2023/04/13 04:24:58;;;;;;;4.20;1.38;;;7.90;97.50;;;;;;5114669;28;20021;-76
2023/04/13 04:27:27;;;;;;;4.88;1.33;;;7.80;97.60;;;;;;5114804;28;20047;-76
2023/04/13 04:29:58;;;;;;;3.38;1.45;;;7.80;97.70;;;;;;5114481;28;20076;-76
2023/04/13 04:32:24;;;;;;;3.17;1.40;;;7.70;97.90;;;;;;5114685;28;20024;-76
2023/04/13 04:34:53;;;;;;;4.00;2.33;;;7.70;98.10;;;;;;5114366;28;20012;-76
2023/04/13 04:37:20;;;;;;;5.72;2.25;;;7.70;98.30;;;;;;5114528;28;20090;-76
2023/04/13 04:39:45;;;;;;;7.45;2.17;;;7.70;98.40;;;;;;5114552;28;20100;-76
2023/04/13 04:42:11;;;;;;;4.88;1.75;;;7.70;98.40;;;;;;5114302;28;20032;-76
2023/04/13 04:44:37;;;;;;;5.22;2.20;;;7.70;98.30;;;;;;5114264;28;20040;-76
2023/04/13 04:47:03;;;;;;;6.43;1.95;;;7.70;98.40;;;;;;5114030;28;20135;-76
2023/04/13 04:49:29;;;;;;;4.18;2.20;;;7.70;98.40;;;;;;5114200;28;20036;-77
2023/04/13 04:51:56;;;;;;;9.30;2.30;;;7.70;98.30;;;;;;5113246;28;20028;-77
2023/04/13 04:54:22;;;;;;;6.60;2.38;;;7.70;98.40;;;;;;5113085;28;20091;-76
2023/04/13 04:56:50;;;;;;;4.30;1.98;;;7.60;98.40;;;;;;5114072;28;20024;-76
2023/04/13 04:59:16;;;;;;;6.18;2.25;;;7.70;98.40;;;;;;5114037;28;20024;-76
2023/04/13 05:01:42;;;;;;;6.20;2.45;;;7.70;98.40;;;;;;5113991;28;20054;-76
2023/04/13 05:04:09;;;;;;;3.83;2.10;;;7.70;98.40;;;;;;5095612;28;20036;-76
2023/04/13 05:06:35;;;;;;;7.43;2.33;;;7.70;98.50;;;;;;5113921;28;20038;-76
2023/04/13 05:09:05;;;;;;;4.70;1.95;;;7.60;98.50;;;;;;5113916;28;20040;-76
2023/04/13 05:11:32;;;;;;;7.47;2.03;;;7.60;98.50;;;;;;5112819;28;20086;-76
2023/04/13 05:14:00;;;;;;;5.47;2.15;;;7.70;98.50;;;;;;5113843;28;20107;-76
2023/04/13 05:16:29;;;;;;;4.40;2.17;;;7.70;98.50;;;;;;5112815;28;20017;-76
2023/04/13 05:18:55;;;;;;;4.32;1.98;;;7.70;98.40;;;;;;5112669;28;20024;-76
2023/04/13 05:21:21;;;;;;;5.90;2.30;;;7.60;98.50;;;;;;5113935;28;20155;-76
2023/04/13 05:23:47;;;;;;;5.60;2.35;;;7.60;98.50;;;;;;5112792;28;20050;-76
2023/04/13 05:26:12;;;;;;;6.00;2.30;;;7.60;98.70;;;;;;5113657;28;20418;-76
2023/04/13 05:28:38;;;;;;;3.65;2.10;;;7.60;98.80;;;;;;5113555;28;20035;-76
2023/04/13 05:31:05;;;;;;;3.72;2.10;;;7.60;98.80;;;;;;5113464;28;20047;-76
2023/04/13 05:33:33;;;;;;;5.85;2.28;;;7.60;98.80;;;;;;5113489;28;20077;-76
2023/04/13 05:35:59;;;;;;;3.80;2.03;;;7.70;98.80;;;;;;5113524;28;20027;-76
2023/04/13 05:38:25;;;;;;;5.25;2.78;;;7.70;98.50;;;;;;5113488;28;20099;-76
2023/04/13 05:40:51;;;;;;;3.65;1.65;;;7.70;98.80;;;;;;5113472;28;20039;-76
2023/04/13 05:43:17;;;;;;;7.35;2.53;;;7.70;99.00;;;;;;5113409;28;20040;-76
2023/04/13 05:45:43;;;;;;;5.50;2.50;;;7.70;99.10;;;;;;5112629;28;20024;-76
2023/04/13 05:48:08;;;;;;;4.28;2.95;;;7.80;98.90;;;;;;5112972;28;20063;-76
2023/04/13 05:50:34;;;;;;;4.63;2.42;;;7.80;98.70;;;;;;5112453;28;20050;-76
2023/04/13 05:53:00;;;;;;;3.75;2.20;;;7.80;98.80;;;;;;5113291;28;20092;-76
2023/04/13 05:55:26;;;;;;;4.80;2.42;;;7.80;98.80;;;;;;5113511;28;20024;-76
2023/04/13 05:57:52;;;;;;;4.78;2.30;;;7.80;98.80;;;;;;5113318;28;20028;-76
2023/04/13 06:00:20;;;;;;;7.18;2.72;;;7.80;98.60;;;;;;5113255;28;20024;-76
2023/04/13 06:02:47;;;;;;;8.07;3.03;;;7.80;98.60;;;;;;5112358;28;20028;-75
2023/04/13 06:05:14;;;;;;;8.05;3.03;;;7.80;98.70;;;;;;5113210;28;20025;-76
2023/04/13 06:07:43;;;;;;;8.63;2.65;;;7.80;98.70;;;;;;5113268;28;20020;-75
2023/04/13 06:10:09;;;;;;;6.30;2.58;;;7.90;98.90;;;;;;5112165;28;20021;-75
2023/04/13 06:12:35;;;;;;;4.32;2.50;;;7.90;98.80;;;;;;5113185;28;20023;-76
2023/04/13 06:15:01;;;;;;;3.90;1.77;;;7.90;98.60;;;;;;5112386;28;20029;-75
2023/04/13 06:17:26;;;;;;;5.15;2.63;;;8.00;98.60;;;;;;5114976;28;20020;-76
2023/04/13 06:19:53;;;;;;;3.90;1.70;;;8.00;98.20;;;;;;5116021;28;20036;-76
2023/04/13 06:22:19;;;;;;;6.47;1.80;;;8.00;98.00;;;;;;5117035;28;20023;-76
2023/04/13 06:24:44;;;;;;;4.53;1.48;;;8.00;98.20;;;;;;5116970;28;20028;-75
2023/04/13 06:27:10;;;;;;;4.60;2.50;;;8.00;98.00;;;;;;5117078;28;20024;-76
2023/04/13 06:29:37;;;;;;;5.75;1.88;;;8.10;98.10;;;;;;5116882;28;20042;-76
2023/04/13 06:32:03;;;;;;;5.47;1.70;;;8.10;98.00;;;;;;5115905;28;20025;-75
2023/04/13 06:34:29;;;;;;;5.25;1.80;;;8.00;98.10;;;;;;5115606;28;20175;-75
2023/04/13 06:36:56;;;;;;;4.95;1.50;;;8.10;97.90;;;;;;5116778;28;20036;-76
2023/04/13 06:39:21;;;;;;;6.57;1.63;;;8.00;97.80;;;;;;5099022;28;20425;-76
2023/04/13 06:41:47;;;;;;;2.20;1.48;;;8.00;98.00;;;;;;5115742;28;20039;-76
2023/04/13 06:44:13;;;;;;;4.22;1.70;;;8.00;98.20;;;;;;5116642;28;20028;-76
2023/04/13 06:46:39;;;;;;;1.67;1.40;;;8.00;98.40;;;;;;5116561;28;20024;-76
2023/04/13 06:49:05;;;;;;;4.82;1.63;;;8.10;98.30;;;;;;5116382;28;20107;-76
2023/04/13 06:51:30;;;;;;;2.88;1.80;;;8.10;98.50;;;;;;5116471;28;20020;-76
2023/04/13 06:53:56;;;;;;;3.83;1.70;;;8.10;98.70;;;;;;5116430;28;20080;-76
2023/04/13 06:56:22;;;;;;;3.95;1.77;;;8.20;98.60;;;;;;5116355;28;20020;-76
2023/04/13 06:58:47;;;;;;;2.95;1.52;;;8.20;98.70;;;;;;5115343;28;20399;-75
2023/04/13 07:01:14;;;;;;;4.45;1.50;;;8.20;98.30;;;;;;5115343;28;20088;-76
2023/04/13 07:03:40;;;;;;;6.65;1.92;;;8.20;98.70;;;;;;5116284;28;20047;-76
2023/04/13 07:06:07;;;;;;;5.18;2.10;;;8.20;98.70;;;;;;5115243;28;20062;-77
2023/04/13 07:08:33;;;;;;;4.28;2.30;;;8.20;98.80;;;;;;5115236;28;20028;-76
2023/04/13 07:10:59;;;;;;;4.32;1.88;;;8.20;98.70;;;;;;5116064;28;20034;-76
2023/04/13 07:13:25;;;;;;;6.30;2.83;;;8.20;98.70;;;;;;5115317;28;20028;-76
2023/04/13 07:15:51;;;;;;;3.38;2.10;;;8.20;99.20;;;;;;5115092;28;20246;-76
2023/04/13 07:18:17;;;;;;;7.78;2.28;;;8.20;99.10;;;;;;5115960;28;20032;-75
2023/04/13 07:20:42;;;;;;;5.43;2.10;;;8.30;99.30;;;;;;5115926;28;20051;-76
2023/04/13 07:23:08;;;;;;;5.30;2.83;;;8.20;99.00;;;;;;5115884;28;20032;-76
2023/04/13 07:25:34;;;;;;;4.95;2.70;;;8.20;99.10;;;;;;5115830;28;20039;-76
2023/04/13 07:28:00;;;;;;;6.70;2.78;;;8.30;99.20;;;;;;5114280;28;20020;-76
2023/04/13 07:30:26;;;;;;;5.05;2.95;;;8.30;99.00;;;;;;5114707;28;20052;-76
2023/04/13 07:32:52;;;;;;;7.07;2.92;;;8.30;98.90;;;;;;5097798;28;20020;-76
2023/04/13 07:35:18;;;;;;;4.00;2.28;;;8.30;98.70;;;;;;5115590;28;20016;-76
2023/04/13 07:37:45;;;;;;;7.18;2.70;;;8.40;98.60;;;;;;5114594;28;20040;-76
2023/04/13 07:40:11;;;;;;;4.95;2.30;;;8.50;98.60;;;;;;5115578;28;20012;-76
2023/04/13 07:42:38;;;;;;;5.15;2.38;;;8.60;98.80;;;;;;5115513;28;20020;-76
2023/04/13 07:45:05;;;;;;;8.30;3.10;;;8.60;98.70;;;;;;5115448;28;20055;-76
2023/04/13 07:47:31;;;;;;;5.07;2.50;;;8.70;98.20;;;;;;5115225;28;20064;-76
2023/04/13 07:49:58;;;;;;;10.13;2.72;;;8.70;98.20;;;;;;5115377;28;20031;-76
2023/04/13 07:52:23;;;;;;;7.32;3.05;;;8.80;98.00;;;;;;5115313;28;20097;-76
2023/04/13 07:54:49;;;;;;;6.53;2.80;;;8.80;97.90;;;;;;5114326;28;20072;-76
2023/04/13 07:57:20;;;;;;;5.28;2.63;;;8.80;97.20;;;;;;5115219;28;20019;-76
2023/04/13 07:59:46;;;;;;;4.55;2.55;;;8.90;97.50;;;;;;5115234;28;20418;-76
2023/04/13 08:02:11;;;;;;;5.85;2.63;;;9.00;98.30;;;;;;5114169;28;20028;-76
2023/04/13 08:04:37;;;;;;;8.13;2.80;;;9.10;97.60;;;;;;5115225;28;20039;-76
2023/04/13 08:07:06;;;;;;;7.75;2.90;;;9.10;97.50;;;;;;5114046;28;20062;-76
2023/04/13 08:09:38;;;;;;;6.82;2.72;;;9.10;96.70;;;;;;5114945;28;20039;-76
2023/04/13 08:12:03;;;;;;;6.32;2.38;;;9.20;96.40;;;;;;5114913;28;20028;-76
2023/04/13 08:14:29;;;;;;;7.68;2.92;;;9.20;96.40;;;;;;5114882;28;20028;-76
2023/04/13 08:16:55;;;;;;;3.75;2.10;;;9.20;96.50;;;;;;5114878;28;20020;-76
2023/04/13 08:19:21;;;;;;;6.15;2.60;;;9.20;96.20;;;;;;5114773;28;20079;-77
2023/04/13 08:21:47;;;;;;;8.52;3.50;;;9.20;95.80;;;;;;5113776;28;20088;-76
2023/04/13 08:24:12;;;;;;;5.75;3.00;;;9.20;96.10;;;;;;5114682;28;20036;-76
2023/04/13 08:26:38;;;;;;;9.35;2.67;;;9.20;96.00;;;;;;5114641;28;20028;-76
2023/04/13 08:29:04;;;;;;;8.07;2.60;;;9.30;96.30;;;;;;5114569;28;20028;-76
2023/04/13 08:31:31;;;;;;;5.97;2.35;;;9.40;96.00;;;;;;5113616;28;20032;-76
2023/04/13 08:33:56;;;;;;;5.82;2.53;;;9.50;95.80;;;;;;5114541;28;20020;-76
2023/04/13 08:36:22;;;;;;;5.55;2.38;;;9.60;95.90;;;;;;5114464;28;20032;-76
2023/04/13 08:38:48;;;;;;;9.25;3.58;;;9.60;95.60;;;;;;5113524;28;20024;-76
2023/04/13 08:41:16;;;;;;;7.55;2.60;;;9.70;95.20;;;;;;5114352;28;20051;-76
2023/04/13 08:43:42;;;;;;;7.18;1.70;;;9.60;95.30;;;;;;5114338;28;20087;-76
2023/04/13 08:46:09;;;;;;;6.45;2.03;;;9.70;94.60;;;;;;5113343;28;20048;-76
2023/04/13 08:48:40;;;;;;;7.75;2.45;;;9.70;94.50;;;;;;5114053;28;20044;-76
2023/04/13 08:51:07;;;;;;;8.82;1.90;;;9.80;94.90;;;;;;5113272;28;20055;-76
2023/04/13 08:53:33;;;;;;;6.72;2.55;;;9.90;94.80;;;;;;5114145;28;20046;-76
2023/04/13 08:56:00;;;;;;;8.68;2.53;;;9.90;95.10;;;;;;5114242;28;20028;-76
2023/04/13 08:58:27;;;;;;;9.45;2.47;;;10.00;93.90;;;;;;5114203;28;20028;-76
2023/04/13 09:00:55;;;;;;;6.88;3.00;;;10.00;94.10;;;;;;5114024;28;20025;-76
2023/04/13 09:03:28;;;;;;;5.60;2.10;;;10.00;94.00;;;;;;5114051;28;20024;-76
2023/04/13 09:06:01;;;;;;;7.32;2.05;;;10.00;94.20;;;;;;5114014;28;20027;-77
2023/04/13 09:08:33;;;;;;;4.72;1.95;;;10.10;93.60;;;;;;5114130;28;20027;-76
2023/04/13 09:10:59;;;;;;;5.40;1.77;;;10.00;93.20;;;;;;5113865;28;20020;-76
2023/04/13 09:13:25;;;;;;;7.15;1.70;;;10.00;92.70;;;;;;5113824;28;20035;-76
2023/04/13 09:15:51;;;;;;;8.23;1.70;;;10.00;92.60;;;;;;5112818;28;20028;-76
2023/04/13 09:18:17;;;;;;;8.48;2.22;;;10.10;92.30;;;;;;5113782;28;20031;-76
2023/04/13 09:20:56;;;;;;;4.75;1.85;;;10.10;92.50;;;;;;5113731;28;20047;-76
2023/04/13 09:23:22;;;;;;;9.07;1.75;;;10.20;92.30;;;;;;5113772;28;20032;-76
2023/04/13 09:25:48;;;;;;;5.97;1.70;;;10.30;92.70;;;;;;5113711;28;20028;-76
2023/04/13 09:28:17;;;;;;;8.50;1.67;;;10.40;91.30;;;;;;5113645;28;20036;-76
2023/04/13 09:30:43;;;;;;;11.52;2.55;;;10.50;91.60;;;;;;5113540;28;20020;-76
2023/04/13 09:33:10;;;;;;;6.35;1.80;;;10.60;91.60;;;;;;5113521;28;20080;-76
2023/04/13 09:35:36;;;;;;;5.13;2.17;;;10.60;90.90;;;;;;5112546;28;20020;-76
2023/04/13 09:38:04;;;;;;;3.05;1.38;;;10.60;91.20;;;;;;5113695;28;20028;-76
2023/04/13 09:40:30;;;;;;;7.38;1.77;;;10.60;91.20;;;;;;5113504;28;20020;-76
2023/04/13 09:43:01;;;;;;;4.53;1.50;;;10.60;90.70;;;;;;5112579;28;20039;-76
2023/04/13 09:45:43;;;;;;;7.57;1.55;;;10.60;90.10;;;;;;5113468;28;20028;-77
2023/04/13 09:48:21;;;;;;;11.98;1.98;;;10.60;90.60;;;;;;5113312;28;20040;-76
2023/04/13 09:51:00;;;;;;;8.65;2.17;;;10.60;90.00;;;;;;5115222;28;20088;-77
2023/04/13 09:53:28;;;;;;;5.22;1.30;;;10.60;89.70;;;;;;5117634;28;20075;-76
2023/04/13 09:56:00;;;;;;;8.75;1.27;;;10.60;89.40;;;;;;5116584;28;20034;-76
2023/04/13 09:58:26;;;;;;;5.97;1.48;;;10.60;90.10;;;;;;5117543;28;20032;-77
2023/04/13 10:00:52;;;;;;;8.07;1.98;;;10.50;90.00;;;;;;5117465;28;20032;-76
2023/04/13 10:03:21;;;;;;;4.25;1.23;;;10.50;89.80;;;;;;5117531;28;20028;-76
2023/04/13 10:05:47;;;;;;;4.40;1.65;;;10.50;88.80;;;;;;5117494;28;20024;-77
2023/04/13 10:08:13;;;;;;;3.17;1.50;;;10.50;90.00;;;;;;5117342;28;20024;-76
2023/04/13 10:10:39;;;;;;;6.20;1.23;;;10.50;90.40;;;;;;5117247;28;20107;-77
2023/04/13 10:13:27;;;;;;;9.25;1.58;;;10.50;89.10;;;;;;5117227;28;20039;-76
2023/04/13 10:16:20;;;;;;;3.80;1.00;;;10.60;89.50;;;;;;5117119;28;20012;-77
2023/04/13 10:19:07;;;;;;;4.82;1.08;;;10.50;88.40;;;;;;5117140;28;20024;-76
2023/04/13 10:21:38;;;;;;;7.30;1.35;;;10.60;88.40;;;;;;5117113;28;20073;-76
2023/04/13 10:24:12;;;;;;;4.22;1.20;;;10.80;88.10;;;;;;5117249;28;20024;-77
2023/04/13 10:26:39;;;;;;;8.73;2.08;;;10.90;89.00;;;;;;5117178;28;20024;-76
2023/04/13 10:29:07;;;;;;;6.93;1.17;;;11.00;89.30;;;;;;5116850;28;20024;-76
2023/04/13 10:31:45;;;;;;;3.47;1.08;;;11.10;89.80;;;;;;5116827;28;20036;-77
2023/04/13 10:34:24;;;;;;;6.07;1.45;;;11.30;88.80;;;;;;5116826;28;20039;-76
2023/04/13 10:36:52;;;;;;;6.65;1.17;;;11.30;87.80;;;;;;5116839;28;20019;-76
2023/04/13 10:39:26;;;;;;;7.60;1.60;;;11.30;89.90;;;;;;5115680;28;20020;-75
2023/04/13 10:42:02;;;;;;;7.68;1.55;;;11.30;90.20;;;;;;5116697;28;20039;-76
2023/04/13 10:44:46;;;;;;;7.35;1.45;;;11.20;90.00;;;;;;5116673;28;20028;-76
2023/04/13 10:47:13;;;;;;;4.95;1.33;;;11.20;89.50;;;;;;5116473;28;20043;-76
2023/04/13 10:49:39;;;;;;;7.13;1.50;;;11.10;90.30;;;;;;5115740;28;20055;-76
2023/04/13 10:52:06;;;;;;;10.55;2.13;;;11.10;90.30;;;;;;5116443;28;20066;-76
2023/04/13 10:54:33;;;;;;;10.68;2.13;;;11.10;90.50;;;;;;5116600;28;20023;-76
2023/04/13 10:57:02;;;;;;;6.90;2.55;;;11.20;88.60;;;;;;5115420;28;20040;-76
2023/04/13 10:59:52;;;;;;;6.03;1.05;;;11.40;90.10;;;;;;5116350;28;20020;-76
2023/04/13 11:02:18;;;;;;;10.23;2.03;;;11.40;85.40;;;;;;5114430;28;20051;-76
2023/04/13 11:04:46;;;;;;;7.78;1.80;;;11.40;86.40;;;;;;5116257;28;20032;-76
2023/04/13 11:07:24;;;;;;;7.13;1.73;;;11.30;86.30;;;;;;5116199;28;20028;-75
2023/04/13 11:09:54;;;;;;;5.93;2.63;;;11.30;83.90;;;;;;5115264;28;20034;-74
2023/04/13 11:12:19;;;;;;;8.55;3.50;;;11.20;84.10;;;;;;5116023;28;20031;-74
2023/04/13 11:14:46;;;;;;;6.55;3.10;;;11.20;84.70;;;;;;5115145;28;20020;-74
2023/04/13 11:17:17;;;;;;;7.63;2.63;;;11.20;85.20;;;;;;5116030;28;20181;-74
2023/04/13 11:19:53;;;;;;;7.32;3.00;;;11.10;85.40;;;;;;5115954;28;20054;-74
2023/04/13 11:22:27;;;;;;;6.03;2.10;;;11.10;86.30;;;;;;5115154;28;20024;-74
2023/04/13 11:25:08;;;;;;;6.63;2.70;;;11.20;85.60;;;;;;5115909;28;20087;-74
2023/04/13 11:27:33;;;;;;;7.38;2.17;;;11.20;86.80;;;;;;5115967;28;20020;-74
2023/04/13 11:30:05;;;;;;;7.35;2.10;;;11.30;85.60;;;;;;5115905;28;20027;-74
2023/04/13 11:32:35;;;;;;;6.60;1.80;;;11.30;84.70;;;;;;5115920;28;20050;-74
2023/04/13 11:35:16;;;;;;;5.57;1.80;;;11.30;84.20;;;;;;5115634;28;20133;-74
2023/04/13 11:37:51;;;;;;;3.95;1.73;;;11.40;85.10;;;;;;5115675;28;20020;-74
2023/04/13 11:40:21;;;;;;;3.83;1.40;;;11.40;84.80;;;;;;5115603;28;20095;-74
2023/04/13 11:42:57;;;;;;;5.18;1.20;;;11.60;86.30;;;;;;5114474;28;20058;-74
2023/04/13 11:45:25;;;;;;;5.72;1.40;;;11.70;82.70;;;;;;5114471;28;20028;-74
2023/04/13 11:47:52;;;;;;;5.28;1.30;;;11.90;84.30;;;;;;5115270;28;20091;-74
2023/04/13 11:50:19;;;;;;;3.63;1.33;;;12.10;84.10;;;;;;5115312;28;20488;-74
2023/04/13 11:52:46;;;;;;;5.60;1.30;;;12.20;82.90;;;;;;5115340;28;20584;-74
2023/04/13 11:55:14;;;;;;;6.93;1.17;;;12.30;82.60;;;;;;5115319;28;20071;-74
2023/04/13 11:57:40;;;;;;;4.18;1.42;;;12.30;82.10;;;;;;5115287;28;20020;-74
2023/04/13 12:00:18;;;;;;;4.38;1.08;;;12.40;81.00;;;;;;5115139;28;20055;-74
2023/04/13 12:02:45;;;;;;;4.53;1.40;;;12.50;79.80;;;;;;5115195;28;20079;-74
2023/04/13 12:05:24;;;;;;;7.05;1.70;;;12.60;82.00;;;;;;5114080;28;20050;-74
2023/04/13 12:07:52;;;;;;;6.13;1.50;;;12.70;80.50;;;;;;5115066;28;20028;-75
2023/04/13 12:10:21;;;;;;;5.90;1.35;;;12.70;76.60;;;;;;5114914;28;20020;-75
2023/04/13 12:12:58;;;;;;;5.53;1.38;;;12.80;77.40;;;;;;5113790;28;20024;-74
2023/04/13 12:15:25;;;;;;;4.82;1.45;;;12.90;77.50;;;;;;5113888;28;20076;-75
2023/04/13 12:17:56;;;;;;;7.85;1.38;;;12.80;74.10;;;;;;5114792;28;20024;-74
2023/04/13 12:20:22;;;;;;;4.22;1.33;;;12.90;75.90;;;;;;5114720;28;20028;-75
2023/04/13 12:22:48;;;;;;;4.68;1.45;;;13.00;76.30;;;;;;5113739;28;20150;-75
2023/04/13 12:25:14;;;;;;;7.07;1.50;;;13.00;74.50;;;;;;5114721;28;20028;-75
2023/04/13 12:27:40;;;;;;;4.03;1.40;;;13.00;77.40;;;;;;5113628;28;20038;-75
2023/04/13 12:30:13;;;;;;;5.57;1.20;;;13.20;79.00;;;;;;5114495;28;20055;-74
2023/04/13 12:32:44;;;;;;;6.18;1.88;;;13.20;76.70;;;;;;5113548;28;20016;-74
2023/04/13 12:35:10;;;;;;;6.32;1.92;;;13.30;76.90;;;;;;5114516;28;20381;-75
2023/04/13 12:37:40;;;;;;;7.82;1.38;;;13.10;73.20;;;;;;5114449;28;20016;-75
2023/04/13 12:40:12;;;;;;;6.82;1.35;;;12.80;74.10;;;;;;5114421;28;20028;-75
2023/04/13 12:42:47;;;;;;;6.00;1.10;;;12.80;76.70;;;;;;5114415;28;20017;-75
2023/04/13 12:45:14;;;;;;;5.78;1.13;;;12.80;76.80;;;;;;5114344;28;20091;-75
2023/04/13 12:47:41;;;;;;;4.88;1.13;;;12.90;78.70;;;;;;5114120;28;20040;-75
2023/04/13 12:50:08;;;;;;;7.25;1.40;;;13.00;77.00;;;;;;5114173;28;20024;-75
2023/04/13 12:52:37;;;;;;;3.45;1.23;;;13.20;77.00;;;;;;5114092;28;20020;-75
2023/04/13 12:55:02;;;;;;;7.20;1.00;;;13.30;73.60;;;;;;5114172;28;20020;-75
2023/04/13 12:57:29;;;;;;;4.72;1.17;;;13.50;75.30;;;;;;5114078;28;20020;-75